Time;durP1;ratioP1;P1;durP2;ratioP2;P2;SDS_P1;SDS_P2;PMS_P1;PMS_P2;Temp;Humidity;BMP_temperature;BMP_pressure;BME280_temperature;BME280_humidity;BME280_pressure;Samples;Min_cycle;Max_cycle;Signal;HPM_P1;HPM_P2
2021/12/17 00:01:05;;;;;;;;;;;8.20;99.90;;;;;;5084416;28;19976;-83
2021/12/17 00:03:43;;;;;;;;;;;8.20;99.90;;;;;;5091218;28;19931;-83
2021/12/17 00:08:37;;;;;;;;;;;8.20;99.90;;;;;;5094793;28;19923;-80
2021/12/17 00:11:03;;;;;;;;;;;8.20;99.90;;;;;;5093446;28;20372;-82
2021/12/17 00:13:28;;;;;;;;;;;8.20;99.90;;;;;;5094919;28;19923;-82
2021/12/17 00:15:54;;;;;;;;;;;8.30;99.90;;;;;;5077929;28;19924;-83
2021/12/17 00:18:27;;;;;;;;;;;8.20;99.90;;;;;;5063406;28;19974;-82
2021/12/17 00:40:14;;;;;;;;;;;8.20;99.90;;;;;;5080838;28;19946;-82
2021/12/17 00:53:44;;;;;;;;;;;8.20;99.90;;;;;;5067506;28;19974;-81
2021/12/17 00:56:10;;;;;;;;;;;8.20;99.90;;;;;;5081147;28;19931;-84
2021/12/17 00:58:36;;;;;;;;;;;8.20;99.90;;;;;;5068464;28;20267;-82
2021/12/17 01:01:01;;;;;;;;;;;8.30;99.90;;;;;;5064257;28;19975;-81
2021/12/17 01:03:27;;;;;;;;;;;8.30;99.90;;;;;;5075724;28;19924;-81
2021/12/17 01:05:52;;;;;;;;;;;8.30;99.90;;;;;;5102219;28;19924;-86
2021/12/17 01:08:18;;;;;;;;;;;8.30;99.90;;;;;;5078635;28;19924;-82
2021/12/17 01:10:47;;;;;;;;;;;8.30;99.90;;;;;;5080848;28;19928;-82
2021/12/17 01:13:13;;;;;;;;;;;8.30;99.90;;;;;;5060786;28;20027;-83
2021/12/17 01:15:39;;;;;;;;;;;8.30;99.90;;;;;;5077949;28;19998;-81
2021/12/17 01:18:10;;;;;;;;;;;8.30;99.90;;;;;;5073359;28;19969;-81
2021/12/17 01:23:30;;;;;;;;;;;8.30;99.90;;;;;;5097563;28;19924;-81
2021/12/17 01:36:38;;;;;;;;;;;8.30;99.90;;;;;;5098298;28;19959;-80
2021/12/17 01:44:13;;;;;;;;;;;8.40;99.90;;;;;;5097962;28;19924;-81
2021/12/17 01:46:38;;;;;;;;;;;8.30;99.90;;;;;;5087091;28;19924;-80
2021/12/17 01:59:48;;;;;;;;;;;8.40;99.90;;;;;;5125121;27;20401;-81
2021/12/17 02:02:14;;;;;;;;;;;8.40;99.90;;;;;;5081747;28;19924;-81
2021/12/17 02:04:40;;;;;;;;;;;8.30;99.90;;;;;;5097583;28;19978;-84
2021/12/17 02:07:06;;;;;;;;;;;8.30;99.90;;;;;;5096939;28;20284;-81
2021/12/17 02:20:22;;;;;;;;;;;8.30;99.90;;;;;;5069311;28;19929;-85
2021/12/17 02:31:16;;;;;;;;;;;8.30;99.90;;;;;;5113739;27;19930;-81
2021/12/17 02:33:41;;;;;;;;;;;8.40;99.90;;;;;;5096544;28;19923;-81
2021/12/17 02:36:07;;;;;;;;;;;8.30;99.90;;;;;;5096215;28;19930;-81
2021/12/17 02:38:36;;;;;;;;;;;8.40;99.90;;;;;;5072466;28;19924;-81
2021/12/17 02:46:34;;;;;;;;;;;8.30;99.90;;;;;;5111217;27;19935;-83
2021/12/17 02:49:00;;;;;;;;;;;8.40;99.90;;;;;;5076253;28;19928;-82
2021/12/17 02:51:26;;;;;;;;;;;8.40;99.90;;;;;;5092001;28;19924;-81
2021/12/17 02:53:53;;;;;;;;;;;8.30;99.90;;;;;;5092541;28;19928;-81
2021/12/17 02:56:19;;;;;;;;;;;8.30;99.90;;;;;;5085165;28;20328;-81
2021/12/17 02:58:45;;;;;;;;;;;8.30;99.90;;;;;;5092023;28;20373;-81
2021/12/17 03:01:12;;;;;;;;;;;8.40;99.90;;;;;;5075381;28;19930;-82
2021/12/17 03:03:38;;;;;;;;;;;8.40;99.90;;;;;;5075567;28;19928;-81
2021/12/17 03:06:04;;;;;;;;;;;8.30;99.90;;;;;;5070927;28;20380;-81
2021/12/17 03:08:30;;;;;;;;;;;8.40;99.90;;;;;;5055241;28;19983;-81
2021/12/17 03:10:55;;;;;;;;;;;8.30;99.90;;;;;;5100518;28;19924;-81
2021/12/17 03:13:22;;;;;;;;;;;8.30;99.90;;;;;;5123931;27;20332;-80
2021/12/17 03:15:57;;;;;;;;;;;8.30;99.90;;;;;;5075572;28;19924;-81
2021/12/17 03:23:51;;;;;;;;;;;8.30;99.90;;;;;;5091989;28;19930;-82
2021/12/17 03:26:25;;;;;;;;;;;8.30;99.90;;;;;;5091769;28;20006;-81
2021/12/17 03:28:52;;;;;;;;;;;8.30;99.90;;;;;;5115746;27;20014;-81
2021/12/17 03:31:18;;;;;;;;;;;8.30;99.90;;;;;;5091651;28;19971;-81
2021/12/17 03:33:45;;;;;;;;;;;8.30;99.90;;;;;;5091482;28;20448;-80
2021/12/17 03:36:14;;;;;;;;;;;8.30;99.90;;;;;;5074680;28;19967;-84
2021/12/17 03:38:40;;;;;;;;;;;8.30;99.90;;;;;;5074646;28;19928;-81
2021/12/17 03:43:37;;;;;;;;;;;8.30;99.90;;;;;;5091456;28;19924;-80
2021/12/17 03:46:03;;;;;;;;;;;8.30;99.90;;;;;;5091207;28;20392;-80
2021/12/17 03:48:30;;;;;;;;;;;8.30;99.90;;;;;;5090946;28;19935;-81
2021/12/17 03:50:56;;;;;;;;;;;8.20;99.90;;;;;;5079925;28;19928;-81
2021/12/17 03:53:21;;;;;;;;;;;8.20;99.90;;;;;;5074899;28;19982;-81
2021/12/17 03:55:47;;;;;;;;;;;8.30;99.90;;;;;;5090965;28;19924;-81
2021/12/17 03:58:13;;;;;;;;;;;8.20;99.90;;;;;;5095332;28;19924;-85
2021/12/17 04:00:38;;;;;;;;;;;8.20;99.90;;;;;;5079463;28;19925;-81
2021/12/17 04:03:04;;;;;;;;;;;8.30;99.90;;;;;;5078922;28;19928;-81
2021/12/17 04:05:29;;;;;;;;;;;8.20;99.90;;;;;;5095652;28;20287;-81
2021/12/17 04:07:55;;;;;;;;;;;8.20;99.90;;;;;;5078962;28;20014;-80
2021/12/17 04:10:22;;;;;;;;;;;8.20;99.90;;;;;;5090582;28;19932;-81
2021/12/17 04:12:56;;;;;;;;;;;8.20;99.90;;;;;;5087274;28;19924;-80
2021/12/17 04:15:35;;;;;;;;;;;8.20;99.90;;;;;;5093093;28;19931;-81
2021/12/17 04:18:05;;;;;;;;;;;8.20;99.90;;;;;;5103430;28;20369;-82
2021/12/17 04:20:31;;;;;;;;;;;8.10;99.90;;;;;;5072196;28;20270;-82
2021/12/17 04:22:56;;;;;;;;;;;8.10;99.90;;;;;;5078838;28;19928;-82
2021/12/17 04:25:23;;;;;;;;;;;8.10;99.90;;;;;;5091849;28;20384;-81
2021/12/17 04:27:48;;;;;;;;;;;8.10;99.90;;;;;;5092259;28;19925;-80
2021/12/17 04:30:14;;;;;;;;;;;8.00;99.90;;;;;;5103974;28;19928;-81
2021/12/17 04:32:40;;;;;;;;;;;8.00;99.90;;;;;;5095016;28;19974;-81
2021/12/17 04:35:05;;;;;;;;;;;7.90;99.90;;;;;;5078626;28;19973;-81
2021/12/17 04:37:31;;;;;;;;;;;7.70;99.90;;;;;;5094714;28;19981;-80
2021/12/17 04:39:57;;;;;;;;;;;7.60;99.90;;;;;;5095343;28;19925;-81
2021/12/17 04:45:00;;;;;;;;;;;7.40;99.90;;;;;;5080237;28;19928;-81
2021/12/17 04:58:23;;;;;;;;;;;7.30;99.90;;;;;;5076131;28;19932;-86
2021/12/17 05:00:49;;;;;;;;;;;7.40;99.90;;;;;;5095149;28;19925;-82
2021/12/17 05:03:14;;;;;;;;;;;7.50;99.90;;;;;;5070850;28;20255;-82
2021/12/17 05:05:40;;;;;;;;;;;7.60;99.90;;;;;;5091266;28;19947;-81
2021/12/17 05:08:11;;;;;;;;;;;7.70;99.90;;;;;;5106799;28;19981;-81
2021/12/17 05:18:32;;;;;;;;;;;7.80;99.90;;;;;;5079366;28;19924;-82
2021/12/17 05:21:03;;;;;;;;;;;7.80;99.90;;;;;;5075792;28;19924;-81
2021/12/17 05:23:32;;;;;;;;;;;7.80;99.90;;;;;;5081503;28;19931;-82
2021/12/17 05:25:59;;;;;;;;;;;7.80;99.90;;;;;;5085277;28;19924;-81
2021/12/17 05:28:24;;;;;;;;;;;7.80;99.90;;;;;;5068618;28;19930;-89
2021/12/17 05:30:50;;;;;;;;;;;7.80;99.90;;;;;;5116283;27;19932;-82
2021/12/17 05:33:17;;;;;;;;;;;7.80;99.90;;;;;;5076006;28;19929;-81
2021/12/17 05:35:42;;;;;;;;;;;7.80;99.90;;;;;;5094057;28;19928;-81
2021/12/17 05:38:09;;;;;;;;;;;7.80;99.90;;;;;;5076106;28;19978;-81
2021/12/17 05:40:34;;;;;;;;;;;7.80;99.90;;;;;;5127497;27;20016;-81
2021/12/17 05:43:02;;;;;;;;;;;7.80;99.90;;;;;;5077234;28;20022;-84
2021/12/17 05:45:35;;;;;;;;;;;7.80;99.90;;;;;;5085239;28;19924;-82
2021/12/17 05:48:02;;;;;;;;;;;7.80;99.90;;;;;;5078932;28;20436;-82
2021/12/17 05:50:28;;;;;;;;;;;7.80;99.90;;;;;;5079500;28;19932;-91
2021/12/17 05:52:54;;;;;;;;;;;7.80;99.90;;;;;;5073548;28;20343;-82
2021/12/17 05:55:19;;;;;;;;;;;7.80;99.90;;;;;;5086771;28;20388;-83
2021/12/17 05:57:45;;;;;;;;;;;7.80;99.90;;;;;;5096725;28;19937;-82
2021/12/17 06:00:11;;;;;;;;;;;7.80;99.90;;;;;;5080081;28;20022;-83
2021/12/17 06:02:37;;;;;;;;;;;7.80;99.90;;;;;;5094318;28;19924;-82
2021/12/17 06:05:02;;;;;;;;;;;7.80;99.90;;;;;;5112983;28;19936;-81
2021/12/17 06:07:29;;;;;;;;;;;7.80;99.90;;;;;;5087289;28;20357;-86
2021/12/17 06:09:58;;;;;;;;;;;7.80;99.90;;;;;;5094866;27;19934;-81
2021/12/17 06:12:24;;;;;;;;;;;7.80;99.90;;;;;;5083674;27;19976;-81
2021/12/17 06:14:49;;;;;;;;;;;7.70;99.90;;;;;;5077924;27;20098;-82
2021/12/17 06:17:15;;;;;;;;;;;7.80;99.90;;;;;;5095313;28;19923;-82
2021/12/17 06:19:40;;;;;;;;;;;7.70;99.90;;;;;;5088104;28;19930;-82
2021/12/17 06:22:06;;;;;;;;;;;7.70;99.90;;;;;;5083543;28;19924;-82
2021/12/17 06:24:31;;;;;;;;;;;7.70;99.90;;;;;;5078326;28;19927;-86
2021/12/17 06:26:57;;;;;;;;;;;7.70;99.90;;;;;;5079567;28;19924;-82
2021/12/17 06:29:22;;;;;;;;;;;7.70;99.90;;;;;;5095079;28;19990;-82
2021/12/17 06:31:48;;;;;;;;;;;7.60;99.90;;;;;;5076144;28;19974;-82
2021/12/17 06:34:14;;;;;;;;;;;7.70;99.90;;;;;;5103720;27;19931;-82
2021/12/17 06:36:39;;;;;;;;;;;7.60;99.90;;;;;;5092923;28;19972;-82
2021/12/17 06:39:05;;;;;;;;;;;7.70;99.90;;;;;;5104720;28;19933;-81
2021/12/17 06:41:30;;;;;;;;;;;7.60;99.90;;;;;;5086867;27;19930;-85
2021/12/17 06:43:58;;;;;;;;;;;7.60;99.90;;;;;;5100701;27;20360;-81
2021/12/17 06:46:37;;;;;;;;;;;7.60;99.90;;;;;;5074143;28;19924;-81
2021/12/17 06:49:23;;;;;;;;;;;7.60;99.90;;;;;;5080081;28;19928;-82
2021/12/17 07:10:43;;;;;;;;;;;7.60;99.90;;;;;;5096633;28;19973;-82
2021/12/17 07:34:44;;;;;;;;;;;7.80;99.90;;;;;;5080161;28;19924;-82
2021/12/17 07:39:38;;;;;;;;;;;7.80;99.90;;;;;;5113582;28;19924;-81
2021/12/17 07:42:04;;;;;;;;;;;7.80;99.90;;;;;;5130509;27;19947;-82
2021/12/17 07:44:29;;;;;;;;;;;7.80;99.90;;;;;;5113448;28;20015;-82
2021/12/17 07:46:55;;;;;;;;;;;7.80;99.90;;;;;;5113267;28;20023;-82
2021/12/17 07:49:21;;;;;;;;;;;7.70;99.90;;;;;;5112723;28;19931;-82
2021/12/17 07:51:46;;;;;;;;;;;7.80;99.90;;;;;;5098194;28;19931;-82
2021/12/17 07:54:12;;;;;;;;;;;7.70;99.90;;;;;;5096323;28;19927;-82
2021/12/17 07:56:38;;;;;;;;;;;7.80;99.90;;;;;;5095670;28;19998;-82
2021/12/17 07:59:05;;;;;;;;;;;7.90;99.90;;;;;;5079283;28;19935;-82
2021/12/17 08:01:30;;;;;;;;;;;7.80;99.90;;;;;;5096009;28;19930;-81
2021/12/17 08:03:56;;;;;;;;;;;7.90;99.90;;;;;;5096021;28;19924;-82
2021/12/17 08:06:22;;;;;;;;;;;7.90;99.90;;;;;;5079047;28;20351;-82
2021/12/17 08:08:47;;;;;;;;;;;7.90;99.90;;;;;;5079364;28;19977;-82
2021/12/17 08:11:13;;;;;;;;;;;7.90;99.90;;;;;;5079121;28;19924;-82
2021/12/17 08:13:40;;;;;;;;;;;7.90;99.90;;;;;;5096246;28;19986;-81
2021/12/17 08:16:29;;;;;;;;;;;8.00;99.90;;;;;;5079381;28;19928;-82
2021/12/17 08:31:54;;;;;;;;;;;8.10;99.90;;;;;;5101362;28;20294;-82
2021/12/17 08:34:20;;;;;;;;;;;8.10;99.90;;;;;;5075349;28;19969;-81
2021/12/17 08:36:45;;;;;;;;;;;8.10;99.90;;;;;;5064081;28;20311;-82
2021/12/17 08:39:11;;;;;;;;;;;8.10;99.90;;;;;;5078998;28;20275;-82
2021/12/17 08:41:39;;;;;;;;;;;8.10;99.90;;;;;;5095796;28;20420;-82
2021/12/17 08:44:05;;;;;;;;;;;8.10;99.90;;;;;;5065903;28;19924;-82
2021/12/17 08:46:30;;;;;;;;;;;8.10;99.90;;;;;;5082548;28;19973;-81
2021/12/17 08:48:56;;;;;;;;;;;8.10;99.90;;;;;;5098619;28;19924;-82
2021/12/17 08:51:22;;;;;;;;;;;8.10;99.90;;;;;;5065611;28;19977;-81
2021/12/17 08:53:47;;;;;;;;;;;8.20;99.90;;;;;;5099336;28;20027;-82
2021/12/17 08:56:20;;;;;;;;;;;8.20;99.90;;;;;;5082178;28;19924;-83
2021/12/17 08:58:46;;;;;;;;;;;8.20;99.90;;;;;;5082208;28;20007;-81
2021/12/17 09:01:12;;;;;;;;;;;8.30;99.90;;;;;;5098764;28;19996;-83
2021/12/17 09:03:37;;;;;;;;;;;8.30;99.90;;;;;;5099449;28;20014;-82
2021/12/17 09:06:03;;;;;;;;;;;8.30;99.90;;;;;;5082503;28;19924;-82
2021/12/17 09:08:28;;;;;;;;;;;8.30;99.90;;;;;;5099283;28;19924;-82
2021/12/17 09:10:55;;;;;;;;;;;8.30;99.90;;;;;;5098996;28;19924;-85
2021/12/17 09:13:27;;;;;;;;;;;8.40;99.90;;;;;;5098544;28;19945;-82
2021/12/17 09:15:54;;;;;;;;;;;8.50;99.90;;;;;;5098571;28;19935;-84
2021/12/17 09:18:20;;;;;;;;;;;8.50;99.90;;;;;;5098902;28;19928;-83
2021/12/17 09:20:45;;;;;;;;;;;8.60;99.90;;;;;;5098821;28;20383;-83
2021/12/17 09:23:11;;;;;;;;;;;8.50;99.90;;;;;;5092025;28;20036;-81
2021/12/17 09:25:37;;;;;;;;;;;8.60;99.90;;;;;;5112017;28;19924;-82
2021/12/17 09:28:04;;;;;;;;;;;8.60;99.90;;;;;;5077551;28;19928;-81
2021/12/17 09:30:29;;;;;;;;;;;8.60;99.90;;;;;;5088263;28;19973;-81
2021/12/17 09:32:55;;;;;;;;;;;8.60;99.90;;;;;;5093102;28;19935;-87
2021/12/17 09:35:21;;;;;;;;;;;8.60;99.90;;;;;;5060684;28;19986;-82
2021/12/17 09:37:47;;;;;;;;;;;8.70;99.90;;;;;;5104754;28;20006;-81
2021/12/17 09:40:12;;;;;;;;;;;8.70;99.90;;;;;;5080476;28;20372;-81
2021/12/17 09:42:40;;;;;;;;;;;8.70;99.90;;;;;;5080602;28;19970;-82
2021/12/17 09:45:06;;;;;;;;;;;8.70;99.90;;;;;;5086122;28;20389;-83
2021/12/17 09:47:32;;;;;;;;;;;8.70;99.90;;;;;;5080845;28;20105;-86
2021/12/17 09:49:58;;;;;;;;;;;8.70;99.90;;;;;;5096423;28;20453;-81
2021/12/17 09:52:24;;;;;;;;;;;8.80;99.90;;;;;;5082567;28;19969;-82
2021/12/17 09:54:50;;;;;;;;;;;8.80;99.90;;;;;;5100640;28;20361;-80
2021/12/17 09:57:17;;;;;;;;;;;8.80;99.90;;;;;;5097436;28;19978;-82
2021/12/17 09:59:43;;;;;;;;;;;8.80;99.90;;;;;;5080347;28;19928;-82
2021/12/17 10:02:09;;;;;;;;;;;8.80;99.90;;;;;;5080116;28;20387;-81
2021/12/17 10:04:34;;;;;;;;;;;8.90;99.90;;;;;;5078092;28;19927;-81
2021/12/17 10:07:18;;;;;;;;;;;8.80;99.90;;;;;;5080098;28;19924;-82
2021/12/17 10:09:54;;;;;;;;;;;8.80;99.90;;;;;;5079901;28;19930;-82
2021/12/17 10:12:24;;;;;;;;;;;8.90;99.90;;;;;;5096808;28;19927;-82
2021/12/17 10:15:06;;;;;;;;;;;8.90;99.90;;;;;;5096634;28;19924;-84
2021/12/17 10:17:33;;;;;;;;;;;8.90;99.90;;;;;;5110298;28;20387;-83
2021/12/17 10:19:58;;;;;;;;;;;8.90;99.90;;;;;;5097631;28;19983;-88
2021/12/17 10:22:25;;;;;;;;;;;8.90;99.90;;;;;;5079501;28;19971;-83
2021/12/17 10:24:58;;;;;;;;;;;8.90;99.90;;;;;;5089932;28;19924;-85
2021/12/17 10:27:28;;;;;;;;;;;8.90;99.90;;;;;;5079554;28;19925;-82
2021/12/17 10:29:54;;;;;;;;;;;8.90;99.90;;;;;;5095831;28;19923;-82
2021/12/17 10:32:21;;;;;;;;;;;9.00;99.90;;;;;;5079228;28;20015;-84
2021/12/17 10:35:19;;;;;;;;;;;9.00;99.90;;;;;;5125765;27;19931;-81
2021/12/17 10:37:51;;;;;;;;;;;8.90;99.90;;;;;;5064391;27;19928;-82
2021/12/17 10:40:20;;;;;;;;;;;9.00;99.90;;;;;;5113058;27;19931;-82
2021/12/17 10:42:59;;;;;;;;;;;9.00;99.90;;;;;;5085127;28;19935;-81
2021/12/17 10:45:27;;;;;;;;;;;9.00;99.90;;;;;;5073518;28;19928;-81
2021/12/17 10:50:48;;;;;;;;;;;9.10;99.90;;;;;;5095938;28;19931;-82
2021/12/17 10:53:14;;;;;;;;;;;9.10;99.90;;;;;;5075193;28;20007;-81
2021/12/17 10:55:45;;;;;;;;;;;9.10;99.90;;;;;;5075223;28;20081;-82
2021/12/17 10:58:11;;;;;;;;;;;9.10;99.90;;;;;;5073547;28;20452;-82
2021/12/17 11:01:09;;;;;;;;;;;9.20;99.90;;;;;;5079214;28;19959;-82
2021/12/17 11:03:39;;;;;;;;;;;9.30;99.90;;;;;;5051504;28;19989;-87
2021/12/17 11:06:04;;;;;;;;;;;9.30;99.90;;;;;;5087083;28;20018;-87
2021/12/17 11:08:37;;;;;;;;;;;9.30;99.90;;;;;;5091779;28;20689;-82
2021/12/17 11:11:11;;;;;;;;;;;9.40;99.90;;;;;;5094134;28;19928;-81
2021/12/17 11:13:51;;;;;;;;;;;9.40;99.90;;;;;;5086620;28;19997;-82
2021/12/17 11:16:18;;;;;;;;;;;9.40;99.90;;;;;;5091819;28;20377;-82
2021/12/17 11:18:44;;;;;;;;;;;9.50;99.90;;;;;;5075209;28;19931;-81
2021/12/17 11:21:10;;;;;;;;;;;9.40;99.90;;;;;;5071514;28;19923;-81
2021/12/17 11:23:36;;;;;;;;;;;9.50;99.90;;;;;;5075879;28;20411;-82
2021/12/17 11:26:01;;;;;;;;;;;9.50;99.90;;;;;;5078593;28;19928;-82
2021/12/17 11:28:27;;;;;;;;;;;9.50;99.90;;;;;;5094642;28;20019;-80
2021/12/17 11:30:53;;;;;;;;;;;9.40;99.90;;;;;;5085580;28;20376;-80
2021/12/17 11:33:19;;;;;;;;;;;9.40;99.90;;;;;;5062392;28;19947;-79
2021/12/17 11:35:46;;;;;;;;;;;9.40;99.90;;;;;;5109468;28;19924;-79
2021/12/17 11:38:27;;;;;;;;;;;9.40;99.90;;;;;;5071645;28;20002;-79
2021/12/17 11:41:00;;;;;;;;;;;9.40;99.90;;;;;;5095887;28;19936;-79
2021/12/17 11:43:50;;;;;;;;;;;9.50;99.90;;;;;;5095255;28;19950;-79
2021/12/17 11:46:16;;;;;;;;;;;9.40;99.90;;;;;;5078281;28;20383;-79
2021/12/17 11:48:56;;;;;;;;;;;9.50;99.90;;;;;;5078484;28;19930;-80
2021/12/17 11:51:29;;;;;;;;;;;9.50;99.90;;;;;;5095353;28;19923;-79
2021/12/17 11:53:55;;;;;;;;;;;9.50;99.90;;;;;;5095584;28;20413;-79
2021/12/17 11:56:30;;;;;;;;;;;9.50;99.90;;;;;;5078476;28;19924;-79
2021/12/17 11:58:55;;;;;;;;;;;9.50;99.90;;;;;;5095454;28;20393;-79
2021/12/17 12:01:39;;;;;;;;;;;9.50;99.90;;;;;;5078351;28;20006;-80
2021/12/17 12:04:36;;;;;;;;;;;9.50;99.90;;;;;;5095315;28;19924;-80
2021/12/17 12:07:05;;;;;;;;;;;9.50;99.90;;;;;;5095185;28;19935;-79
2021/12/17 12:09:57;;;;;;;;;;;9.50;99.90;;;;;;5078177;28;19924;-79
2021/12/17 12:12:30;;;;;;;;;;;9.50;99.90;;;;;;5078089;28;19935;-79
2021/12/17 12:15:16;;;;;;;;;;;9.50;99.90;;;;;;5077985;28;20026;-79
2021/12/17 12:17:57;;;;;;;;;;;9.50;99.90;;;;;;5082063;28;19924;-79
2021/12/17 12:20:49;;;;;;;;;;;9.50;99.90;;;;;;5099118;28;19935;-79
2021/12/17 12:23:27;;;;;;;;;;;9.50;99.90;;;;;;5098849;28;19931;-81
2021/12/17 12:26:04;;;;;;;;;;;9.60;99.90;;;;;;5099203;28;19943;-79
2021/12/17 12:28:49;;;;;;;;;;;9.60;99.90;;;;;;5098466;28;19952;-80
2021/12/17 12:31:17;;;;;;;;;;;9.50;99.90;;;;;;5098856;28;19924;-87
2021/12/17 12:34:06;;;;;;;;;;;9.60;99.90;;;;;;5098856;28;19950;-79
2021/12/17 12:36:45;;;;;;;;;;;9.60;99.90;;;;;;5081531;28;19923;-78
2021/12/17 12:39:21;;;;;;;;;;;9.60;99.90;;;;;;5078571;28;19924;-79
2021/12/17 12:41:48;;;;;;;;;;;9.70;99.90;;;;;;5078737;28;19924;-79
2021/12/17 12:44:14;;;;;;;;;;;9.70;99.90;;;;;;5112441;28;19924;-79
2021/12/17 12:46:53;;;;;;;;;;;9.70;99.90;;;;;;5112068;28;19931;-79
2021/12/17 12:49:59;;;;;;;;;;;9.70;99.90;;;;;;5095862;28;19924;-79
2021/12/17 12:52:24;;;;;;;;;;;9.70;99.90;;;;;;4994041;28;20060;-82
2021/12/17 12:54:51;;;;;;;;;;;9.70;99.90;;;;;;4978057;28;20044;-78
2021/12/17 12:57:24;;;;;;;;;;;9.60;99.90;;;;;;5026057;28;19924;-89
2021/12/17 12:59:53;;;;;;;;;;;9.60;99.90;;;;;;5078228;28;19928;-78
2021/12/17 13:02:19;;;;;;;;;;;9.60;99.90;;;;;;5111711;28;19924;-87
2021/12/17 13:04:45;;;;;;;;;;;9.50;99.90;;;;;;5078232;28;20380;-78
2021/12/17 13:07:13;;;;;;;;;;;9.50;99.90;;;;;;5077968;28;19924;-80
2021/12/17 13:09:42;;;;;;;;;;;9.50;99.90;;;;;;5111278;28;19920;-78
2021/12/17 13:12:08;;;;;;;;;;;9.50;99.90;;;;;;5061529;28;19924;-78
2021/12/17 13:14:41;;;;;;;;;;;9.50;99.90;;;;;;5077776;28;19924;-78
2021/12/17 13:17:29;;;;;;;;;;;9.50;99.90;;;;;;5112091;28;19931;-78
2021/12/17 13:20:30;;;;;;;;;;;9.50;99.90;;;;;;5063995;28;20044;-78
2021/12/17 13:22:56;;;;;;;;;;;9.50;99.90;;;;;;5095382;28;19982;-78
2021/12/17 13:25:26;;;;;;;;;;;9.50;99.90;;;;;;5093912;28;19924;-79
2021/12/17 13:27:53;;;;;;;;;;;9.50;99.90;;;;;;5111184;28;19931;-78
2021/12/17 13:30:23;;;;;;;;;;;9.40;99.90;;;;;;5111182;28;19924;-78
2021/12/17 13:32:50;;;;;;;;;;;9.30;99.90;;;;;;5095359;28;20274;-78
2021/12/17 13:35:17;;;;;;;;;;;9.30;99.90;;;;;;5061142;28;19924;-78
2021/12/17 13:37:43;;;;;;;;;;;9.30;99.90;;;;;;5093149;28;19931;-78
2021/12/17 13:40:11;;;;;;;;;;;9.30;99.90;;;;;;5114663;28;19924;-79
2021/12/17 13:42:36;;;;;;;;;;;9.30;99.90;;;;;;5115025;28;20377;-78
2021/12/17 13:45:05;;;;;;;;;;;9.30;99.90;;;;;;5114760;28;20032;-78
2021/12/17 13:47:32;;;;;;;;;;;9.30;99.90;;;;;;5114134;28;19924;-78
2021/12/17 13:49:58;;;;;;;;;;;9.30;99.90;;;;;;5148420;27;19930;-78
2021/12/17 13:52:24;;;;;;;;;;;9.30;99.90;;;;;;5131257;27;20010;-86
2021/12/17 13:54:51;;;;;;;;;;;9.30;99.90;;;;;;5114209;28;19931;-78
2021/12/17 13:57:17;;;;;;;;;;;9.30;99.90;;;;;;5114383;28;20266;-79
2021/12/17 13:59:44;;;;;;;;;;;9.30;99.90;;;;;;5096858;28;19949;-78
2021/12/17 14:02:17;;;;;;;;;;;9.30;99.90;;;;;;5114171;28;19982;-78
2021/12/17 14:04:43;;;;;;;;;;;9.20;99.90;;;;;;5114926;28;19934;-78
2021/12/17 14:07:10;;;;;;;;;;;9.20;99.90;;;;;;5113710;28;19953;-78
2021/12/17 14:09:36;;;;;;;;;;;9.30;99.90;;;;;;5114601;28;19924;-81
2021/12/17 14:12:23;;;;;;;;;;;9.30;99.90;;;;;;5114178;28;19928;-78
2021/12/17 14:14:55;;;;;;;;;;;9.20;99.90;;;;;;5148161;27;19923;-78
2021/12/17 14:17:21;;;;;;;;;;;9.20;99.90;;;;;;5114031;28;20019;-80
2021/12/17 14:19:47;;;;;;;;;;;9.20;99.90;;;;;;5130636;27;20006;-78
2021/12/17 14:22:33;;;;;;;;;;;9.20;99.90;;;;;;5113412;28;19935;-78
2021/12/17 14:24:59;;;;;;;;;;;9.20;99.90;;;;;;5114688;28;19924;-78
2021/12/17 14:27:57;;;;;;;;;;;9.20;99.90;;;;;;5113708;28;20314;-78
2021/12/17 14:30:33;;;;;;;;;;;9.10;99.90;;;;;;5068768;28;19942;-79
2021/12/17 14:33:10;;;;;;;;;;;9.10;99.90;;;;;;5096712;28;20357;-78
2021/12/17 14:35:46;;;;;;;;;;;9.10;99.90;;;;;;5113360;28;20284;-84
2021/12/17 14:38:12;;;;;;;;;;;9.10;99.90;;;;;;5147826;27;19924;-78
2021/12/17 14:40:47;;;;;;;;;;;9.10;99.90;;;;;;5095390;28;19923;-78
2021/12/17 14:43:19;;;;;;;;;;;9.00;99.90;;;;;;5113927;28;20292;-78
2021/12/17 14:45:53;;;;;;;;;;;9.10;99.90;;;;;;5147705;27;19946;-78
2021/12/17 14:48:25;;;;;;;;;;;9.10;99.90;;;;;;5113253;28;19924;-79
2021/12/17 15:04:44;;;;;;;;;;;9.00;99.90;;;;;;5103011;28;20376;-78
2021/12/17 15:07:10;;;;;;;;;;;9.00;99.90;;;;;;5079483;28;20281;-77
2021/12/17 15:09:39;;;;;;;;;;;9.10;99.90;;;;;;5112504;28;19931;-80
2021/12/17 15:12:23;;;;;;;;;;;9.00;99.90;;;;;;5112878;28;19948;-78
2021/12/17 15:14:49;;;;;;;;;;;9.00;99.90;;;;;;5112080;28;20361;-78
2021/12/17 15:17:14;;;;;;;;;;;9.00;99.90;;;;;;5113753;28;19980;-78
2021/12/17 15:19:40;;;;;;;;;;;9.00;99.90;;;;;;5111811;28;19982;-79
2021/12/17 15:22:06;;;;;;;;;;;9.00;99.90;;;;;;5112140;28;19924;-78
2021/12/17 15:24:31;;;;;;;;;;;9.00;99.90;;;;;;5111811;28;19923;-78
2021/12/17 15:26:57;;;;;;;;;;;9.00;99.90;;;;;;5094920;28;19924;-78
2021/12/17 15:29:24;;;;;;;;;;;9.00;99.90;;;;;;5112077;28;19927;-78
2021/12/17 15:31:51;;;;;;;;;;;9.00;99.90;;;;;;5112162;28;19932;-78
2021/12/17 15:34:17;;;;;;;;;;;9.00;99.90;;;;;;5112370;28;20010;-78
2021/12/17 15:36:43;;;;;;;;;;;9.00;99.90;;;;;;5112070;28;20028;-78
2021/12/17 15:39:08;;;;;;;;;;;9.00;99.90;;;;;;5113731;28;19924;-79
2021/12/17 15:41:39;;;;;;;;;;;9.00;99.90;;;;;;5129806;27;19932;-86
2021/12/17 15:44:05;;;;;;;;;;;9.00;99.90;;;;;;5062749;28;19924;-78
2021/12/17 15:46:30;;;;;;;;;;;9.00;99.90;;;;;;5078337;28;19934;-78
2021/12/17 15:48:56;;;;;;;;;;;9.00;99.90;;;;;;5077750;28;19930;-78
2021/12/17 15:51:22;;;;;;;;;;;9.00;99.90;;;;;;5097508;28;19923;-78
2021/12/17 15:53:47;;;;;;;;;;;9.00;99.90;;;;;;5135463;27;20384;-79
2021/12/17 15:56:13;;;;;;;;;;;9.00;99.90;;;;;;5136403;27;19923;-78
2021/12/17 15:58:38;;;;;;;;;;;8.90;99.90;;;;;;5101769;28;19924;-78
2021/12/17 16:01:04;;;;;;;;;;;8.90;99.90;;;;;;5085096;28;19931;-78
2021/12/17 16:03:35;;;;;;;;;;;9.00;99.90;;;;;;5120142;28;19923;-78
2021/12/17 16:06:03;;;;;;;;;;;8.90;99.90;;;;;;5085201;28;19938;-78
2021/12/17 16:08:31;;;;;;;;;;;9.00;99.90;;;;;;5102442;28;19924;-78
2021/12/17 16:21:00;;;;;;;;;;;9.00;99.90;;;;;;5099221;28;19924;-81
2021/12/17 16:21:44;;;;;;;;;;;9.00;99.90;;;;;;5082985;28;19927;-82
2021/12/17 16:24:10;;;;;;;;;;;9.00;99.90;;;;;;5068860;28;19924;-82
2021/12/17 16:26:36;;;;;;;;;;;9.00;99.90;;;;;;5101845;28;20311;-83
2021/12/17 16:29:01;;;;;;;;;;;9.00;99.90;;;;;;5084193;28;19931;-81
2021/12/17 16:31:28;;;;;;;;;;;9.00;99.90;;;;;;5100337;28;19932;-78
2021/12/17 16:33:55;;;;;;;;;;;8.90;99.90;;;;;;5116151;28;20375;-87
2021/12/17 16:36:20;;;;;;;;;;;9.00;99.90;;;;;;5073830;28;20400;-84
2021/12/17 16:38:46;;;;;;;;;;;9.00;99.90;;;;;;5081167;28;19923;-83
2021/12/17 16:41:12;;;;;;;;;;;9.00;99.90;;;;;;5082371;28;19924;-84
2021/12/17 16:43:38;;;;;;;;;;;8.90;99.90;;;;;;5081096;28;19931;-84
2021/12/17 16:48:37;;;;;;;;;;;8.90;99.90;;;;;;5085490;28;20261;-84
2021/12/17 16:51:03;;;;;;;;;;;8.90;99.90;;;;;;5081789;28;20005;-85
2021/12/17 16:53:28;;;;;;;;;;;8.90;99.90;;;;;;5084750;28;20020;-86
2021/12/17 16:55:54;;;;;;;;;;;9.00;99.90;;;;;;5078483;28;19927;-83
2021/12/17 16:58:20;;;;;;;;;;;9.00;99.90;;;;;;5080678;28;19935;-84
2021/12/17 17:00:45;;;;;;;;;;;8.90;99.90;;;;;;5082647;28;19924;-88
2021/12/17 17:03:11;;;;;;;;;;;8.90;99.90;;;;;;5084021;28;19924;-84
2021/12/17 17:05:37;;;;;;;;;;;8.90;99.90;;;;;;5094853;28;20373;-85
2021/12/17 17:08:04;;;;;;;;;;;8.90;99.90;;;;;;5100088;28;19943;-83
2021/12/17 17:10:33;;;;;;;;;;;8.90;99.90;;;;;;5069242;28;19935;-83
2021/12/17 17:13:02;;;;;;;;;;;8.90;99.90;;;;;;5062564;28;19932;-84
2021/12/17 17:15:30;;;;;;;;;;;8.90;99.90;;;;;;5079575;28;20429;-83
2021/12/17 17:17:56;;;;;;;;;;;9.00;99.90;;;;;;5073907;28;20014;-82
2021/12/17 17:20:22;;;;;;;;;;;8.90;99.90;;;;;;5056507;28;20023;-82
2021/12/17 17:22:47;;;;;;;;;;;8.90;99.90;;;;;;5093379;28;20448;-86
2021/12/17 17:25:13;;;;;;;;;;;8.90;99.90;;;;;;5076465;28;19983;-84
2021/12/17 17:27:39;;;;;;;;;;;8.90;99.90;;;;;;5058699;28;19928;-84
2021/12/17 17:30:05;;;;;;;;;;;8.90;99.90;;;;;;5095270;28;19935;-84
2021/12/17 17:32:33;;;;;;;;;;;8.90;99.90;;;;;;5093019;28;19928;-84
2021/12/17 17:34:59;;;;;;;;;;;8.80;99.90;;;;;;5089522;28;19924;-83
2021/12/17 17:37:28;;;;;;;;;;;8.80;99.90;;;;;;5078686;28;19936;-84
2021/12/17 17:39:54;;;;;;;;;;;8.80;99.90;;;;;;5096275;28;19967;-84
2021/12/17 17:42:19;;;;;;;;;;;8.80;99.90;;;;;;5097510;27;20457;-84
2021/12/17 17:44:45;;;;;;;;;;;8.70;99.90;;;;;;5089988;28;19925;-84
2021/12/17 17:47:11;;;;;;;;;;;8.70;99.90;;;;;;5077712;28;19934;-84
2021/12/17 17:49:37;;;;;;;;;;;8.70;99.90;;;;;;5096113;28;20376;-84
2021/12/17 17:52:03;;;;;;;;;;;8.70;99.90;;;;;;5074872;28;19928;-84
2021/12/17 17:54:28;;;;;;;;;;;8.70;99.90;;;;;;5090831;28;20331;-83
2021/12/17 17:56:56;;;;;;;;;;;8.70;99.90;;;;;;5094314;28;19924;-82
2021/12/17 17:59:21;;;;;;;;;;;8.70;99.90;;;;;;5094325;28;19941;-81